createdAt,value
2019-01-25T00:01:52.546Z,26.03
2019-01-25T00:04:23.845Z,24.77
2019-01-25T00:06:56.299Z,26.03
2019-01-25T00:09:27.617Z,25.10
2019-01-25T00:11:58.988Z,25.13
2019-01-25T00:14:30.445Z,26.27
2019-01-25T00:17:01.680Z,26.27
2019-01-25T00:19:32.935Z,26.03
2019-01-25T00:22:04.248Z,26.53
2019-01-25T00:24:35.586Z,27.03
2019-01-25T00:27:07.029Z,26.40
2019-01-25T00:29:38.383Z,27.00
2019-01-25T00:32:09.421Z,26.63
2019-01-25T00:34:40.746Z,27.57
2019-01-25T00:37:12.030Z,26.10
2019-01-25T00:39:44.527Z,26.87
2019-01-25T00:42:16.024Z,26.77
2019-01-25T00:44:47.501Z,26.30
2019-01-25T00:47:18.947Z,25.27
2019-01-25T00:49:50.203Z,25.63
2019-01-25T00:52:21.450Z,25.97
2019-01-25T00:54:52.779Z,27.27
2019-01-25T00:57:24.100Z,27.23
2019-01-25T00:59:55.622Z,25.97
2019-01-25T01:02:27.107Z,27.17
2019-01-25T01:04:58.452Z,27.37
2019-01-25T01:07:29.558Z,26.70
2019-01-25T01:10:00.834Z,26.53
2019-01-25T01:12:32.053Z,28.37
2019-01-25T01:15:03.499Z,28.07
2019-01-25T01:17:34.775Z,28.07
2019-01-25T01:20:08.165Z,27.43
2019-01-25T01:22:39.895Z,28.43
2019-01-25T01:25:11.879Z,28.00
2019-01-25T01:27:43.373Z,28.10
2019-01-25T01:30:18.182Z,26.73
2019-01-25T01:32:50.218Z,27.20
2019-01-25T01:35:21.477Z,27.30
2019-01-25T01:37:53.377Z,27.03
2019-01-25T01:40:27.763Z,26.83
2019-01-25T01:42:59.082Z,27.30
2019-01-25T01:45:30.360Z,27.40
2019-01-25T01:48:01.601Z,27.87
2019-01-25T01:50:32.839Z,27.10
2019-01-25T01:53:04.023Z,27.83
2019-01-25T01:55:35.365Z,27.80
2019-01-25T01:58:07.694Z,26.87
2019-01-25T02:00:38.933Z,28.93
2019-01-25T02:03:10.335Z,28.37
2019-01-25T02:05:41.603Z,29.13
2019-01-25T02:08:12.905Z,28.23
2019-01-25T02:10:44.288Z,28.43
2019-01-25T02:13:15.757Z,28.53
2019-01-25T02:15:47.195Z,27.87
2019-01-25T02:18:18.505Z,31.57
2019-01-25T02:20:49.568Z,29.70
2019-01-25T02:23:20.929Z,31.10
2019-01-25T02:25:52.244Z,30.23
2019-01-25T02:28:23.657Z,30.50
2019-01-25T02:30:54.818Z,30.83
2019-01-25T02:33:26.041Z,31.17
2019-01-25T02:35:57.143Z,27.90
2019-01-25T02:38:28.368Z,28.33
2019-01-25T02:40:59.727Z,28.17
2019-01-25T02:43:32.113Z,27.90
2019-01-25T02:46:03.258Z,29.23
2019-01-25T02:48:34.485Z,29.30
2019-01-25T02:51:05.725Z,29.27
2019-01-25T02:53:37.068Z,27.33
2019-01-25T02:56:08.521Z,28.80
2019-01-25T02:58:39.732Z,27.40
2019-01-25T03:01:11.119Z,29.67
2019-01-25T03:03:42.233Z,29.33
2019-01-25T03:06:13.638Z,30.83
2019-01-25T03:08:46.667Z,29.73
2019-01-25T03:11:18.151Z,30.23
2019-01-25T03:13:49.709Z,31.37
2019-01-25T03:16:20.859Z,31.13
2019-01-25T03:18:52.255Z,31.53
2019-01-25T03:21:23.592Z,31.97
2019-01-25T03:23:55.073Z,39.90
2019-01-25T03:26:26.292Z,47.33
2019-01-25T03:28:57.622Z,45.90
2019-01-25T03:31:28.899Z,33.43
2019-01-25T03:34:01.172Z,32.57
2019-01-25T03:36:32.448Z,36.63
2019-01-25T03:39:04.660Z,35.80
2019-01-25T03:41:35.744Z,34.37
2019-01-25T03:44:07.765Z,32.97
2019-01-25T03:46:39.193Z,32.33
2019-01-25T03:49:12.278Z,32.43
2019-01-25T03:51:43.696Z,33.30
2019-01-25T03:54:14.975Z,33.60
2019-01-25T03:56:47.954Z,31.23
2019-01-25T03:59:19.332Z,30.37
2019-01-25T04:01:50.758Z,30.67
2019-01-25T04:04:21.811Z,30.50
2019-01-25T04:06:52.924Z,32.70
2019-01-25T04:09:24.493Z,31.27
2019-01-25T04:11:55.743Z,31.17
2019-01-25T04:14:27.119Z,31.33
2019-01-25T04:16:59.339Z,31.13
2019-01-25T04:19:30.659Z,31.73
2019-01-25T04:22:01.932Z,31.40
2019-01-25T04:24:33.138Z,38.00
2019-01-25T04:27:04.483Z,37.17
2019-01-25T04:29:35.646Z,34.67
2019-01-25T04:32:06.766Z,34.00
2019-01-25T04:34:38.090Z,34.87
2019-01-25T04:37:09.331Z,35.50
2019-01-25T04:39:40.517Z,38.93
2019-01-25T04:42:14.222Z,35.43
2019-01-25T04:44:45.396Z,31.67
2019-01-25T04:47:19.717Z,33.23
2019-01-25T04:49:51.217Z,32.50
2019-01-25T04:52:22.531Z,31.23
2019-01-25T04:54:53.905Z,33.03
2019-01-25T04:57:25.132Z,32.00
2019-01-25T04:59:56.513Z,32.10
2019-01-25T05:02:27.910Z,34.27
2019-01-25T05:04:59.176Z,34.27
2019-01-25T05:07:30.529Z,33.80
2019-01-25T05:10:01.688Z,31.67
2019-01-25T05:12:32.903Z,31.10
2019-01-25T05:15:04.419Z,30.53
2019-01-25T05:17:35.515Z,31.00
2019-01-25T05:20:07.884Z,31.27
2019-01-25T05:22:38.924Z,30.33
2019-01-25T05:25:10.437Z,32.73
2019-01-25T05:27:41.606Z,32.60
2019-01-25T05:30:13.286Z,40.93
2019-01-25T05:32:44.396Z,52.17
2019-01-25T05:35:15.574Z,47.53
2019-01-25T05:37:46.795Z,48.47
2019-01-25T05:40:23.225Z,44.47
2019-01-25T05:42:55.516Z,40.20
2019-01-25T05:45:26.775Z,46.03
2019-01-25T05:47:57.733Z,47.37
2019-01-25T05:50:29.054Z,47.63
2019-01-25T05:53:00.362Z,39.83
2019-01-25T05:55:31.782Z,37.27
2019-01-25T05:58:04.099Z,31.27
2019-01-25T06:00:37.742Z,31.77
2019-01-25T06:03:13.601Z,33.17
2019-01-25T06:05:45.145Z,34.70
2019-01-25T06:08:31.336Z,37.63
2019-01-25T06:11:07.109Z,37.03
2019-01-25T06:13:38.789Z,36.47
2019-01-25T06:16:10.464Z,35.47
2019-01-25T06:18:42.764Z,34.20
2019-01-25T06:21:14.298Z,33.30
2019-01-25T06:23:45.840Z,29.63
2019-01-25T06:26:17.422Z,26.67
2019-01-25T06:28:52.347Z,27.33
2019-01-25T06:31:23.618Z,24.57
2019-01-25T06:33:54.837Z,24.37
2019-01-25T06:36:26.158Z,22.43
2019-01-25T06:38:57.198Z,22.57
2019-01-25T06:41:28.522Z,22.73
2019-01-25T06:43:59.926Z,23.47
2019-01-25T06:46:31.418Z,23.17
2019-01-25T06:49:02.801Z,25.27
2019-01-25T06:51:34.171Z,24.53
2019-01-25T06:54:05.764Z,22.73
2019-01-25T06:56:37.078Z,23.57
2019-01-25T06:59:14.560Z,25.17
2019-01-25T07:01:58.829Z,25.23
2019-01-25T07:04:29.886Z,20.67
2019-01-25T07:07:01.165Z,20.60
2019-01-25T07:09:32.504Z,20.93
2019-01-25T07:12:03.893Z,21.67
2019-01-25T07:14:34.994Z,19.33
2019-01-25T07:17:06.378Z,19.63
2019-01-25T07:19:37.915Z,19.70
2019-01-25T07:22:09.174Z,17.43
2019-01-25T07:24:40.499Z,17.93
2019-01-25T07:27:11.768Z,18.47
2019-01-25T07:29:42.812Z,17.07
2019-01-25T07:32:13.874Z,15.30
2019-01-25T07:34:45.025Z,13.37
2019-01-25T07:37:16.411Z,11.40
2019-01-25T07:39:48.126Z,9.70
2019-01-25T07:42:19.165Z,9.67
2019-01-25T07:44:50.600Z,9.07
2019-01-25T07:47:21.816Z,8.97
2019-01-25T07:49:53.044Z,8.20
2019-01-25T07:52:24.491Z,9.17
2019-01-25T07:54:55.567Z,9.40
2019-01-25T07:57:26.980Z,8.83
2019-01-25T07:59:58.234Z,8.97
2019-01-25T08:02:29.577Z,7.93
2019-01-25T08:05:01.710Z,7.50
2019-01-25T08:07:32.933Z,7.60
2019-01-25T08:10:05.038Z,8.30
2019-01-25T08:12:36.456Z,8.67
2019-01-25T08:15:10.002Z,8.43
2019-01-25T08:17:41.337Z,9.20
2019-01-25T08:20:14.970Z,8.07
2019-01-25T08:22:46.482Z,8.50
2019-01-25T08:25:18.008Z,8.80
2019-01-25T08:27:51.037Z,8.30
2019-01-25T08:30:22.568Z,7.37
2019-01-25T08:32:54.029Z,6.87
2019-01-25T08:35:25.467Z,6.80
2019-01-25T08:37:56.750Z,7.27
2019-01-25T08:40:28.066Z,7.17
2019-01-25T08:42:59.322Z,7.17
2019-01-25T08:45:30.503Z,7.17
2019-01-25T08:48:01.821Z,7.27
2019-01-25T08:50:33.075Z,6.93
2019-01-25T08:53:04.706Z,6.33
2019-01-25T08:55:36.104Z,6.87
2019-01-25T08:58:07.424Z,6.37
2019-01-25T09:00:38.804Z,5.97
2019-01-25T09:03:09.800Z,6.50
2019-01-25T09:05:41.202Z,6.27
2019-01-25T09:08:14.759Z,6.17
2019-01-25T09:10:46.150Z,5.93
2019-01-25T09:13:17.499Z,6.80
2019-01-25T09:15:48.779Z,6.30
2019-01-25T09:18:20.171Z,11.53
2019-01-25T09:20:51.341Z,11.13
2019-01-25T09:23:22.513Z,6.60
2019-01-25T09:26:00.763Z,6.10
2019-01-25T09:28:26.822Z,6.10
2019-01-25T09:30:57.991Z,5.63
2019-01-25T09:33:29.224Z,6.20
2019-01-25T09:36:00.443Z,6.47
2019-01-25T09:38:34.928Z,6.67
2019-01-25T09:41:06.117Z,8.30
2019-01-25T09:43:37.562Z,12.63
2019-01-25T09:46:08.860Z,14.17
2019-01-25T09:48:40.155Z,18.03
2019-01-25T09:51:12.522Z,18.70
2019-01-25T09:53:43.800Z,20.33
2019-01-25T09:56:15.158Z,21.87
2019-01-25T09:58:48.166Z,33.50
2019-01-25T10:01:19.428Z,34.20
2019-01-25T10:03:50.735Z,20.80
2019-01-25T10:06:22.005Z,16.33
2019-01-25T10:08:53.257Z,10.57
2019-01-25T10:11:24.475Z,10.30
2019-01-25T10:13:55.961Z,10.43
2019-01-25T10:16:27.298Z,12.33
2019-01-25T10:18:58.518Z,11.20
2019-01-25T10:21:29.779Z,11.50
2019-01-25T10:24:00.940Z,10.43
2019-01-25T10:26:32.207Z,12.17
2019-01-25T10:29:03.431Z,31.73
2019-01-25T10:31:34.756Z,13.63
2019-01-25T10:34:06.458Z,9.40
2019-01-25T10:36:37.645Z,8.77
2019-01-25T10:39:09.931Z,10.13
2019-01-25T10:41:41.095Z,9.97
2019-01-25T10:44:12.443Z,10.77
2019-01-25T10:46:43.723Z,9.83
2019-01-25T10:49:15.029Z,9.77
2019-01-25T10:51:46.138Z,9.17
2019-01-25T10:54:17.490Z,8.27
2019-01-25T10:56:48.777Z,9.33
2019-01-25T10:59:20.074Z,9.33
2019-01-25T11:01:51.354Z,9.23
2019-01-25T11:04:22.548Z,9.70
2019-01-25T11:06:53.830Z,9.37
2019-01-25T11:09:25.057Z,10.30
2019-01-25T11:11:56.238Z,10.27
2019-01-25T11:14:27.560Z,9.83
2019-01-25T11:16:58.818Z,10.77
2019-01-25T11:19:30.128Z,11.40
2019-01-25T11:22:01.378Z,11.70
2019-01-25T11:24:32.618Z,11.00
2019-01-25T11:27:03.969Z,10.90
2019-01-25T11:29:35.294Z,10.43
2019-01-25T11:32:08.612Z,10.73
2019-01-25T11:34:39.964Z,11.60
2019-01-25T11:37:11.232Z,10.90
2019-01-25T11:39:42.487Z,10.23
2019-01-25T11:42:13.787Z,10.23
2019-01-25T11:44:46.867Z,10.43
2019-01-25T11:47:18.108Z,11.60
2019-01-25T11:49:49.415Z,11.30
2019-01-25T11:52:25.011Z,12.63
2019-01-25T11:54:53.504Z,13.80
2019-01-25T11:57:24.746Z,12.13
2019-01-25T11:59:55.899Z,12.80
2019-01-25T12:02:27.265Z,13.13
2019-01-25T12:04:58.485Z,11.73
2019-01-25T12:07:29.683Z,11.67
2019-01-25T12:10:02.276Z,13.53
2019-01-25T12:12:33.427Z,13.13
2019-01-25T12:15:06.010Z,13.00
2019-01-25T12:17:37.260Z,12.87
2019-01-25T12:20:11.445Z,14.20
2019-01-25T12:22:44.139Z,13.30
2019-01-25T12:25:15.480Z,14.23
2019-01-25T12:27:46.649Z,13.73
2019-01-25T12:30:37.606Z,13.80
2019-01-25T12:33:06.332Z,13.57
2019-01-25T12:35:42.575Z,13.67
2019-01-25T12:38:13.763Z,13.20
2019-01-25T12:40:45.820Z,13.47
2019-01-25T12:43:23.733Z,14.60
2019-01-25T12:45:50.618Z,14.00
2019-01-25T12:48:21.803Z,14.13
2019-01-25T12:50:56.883Z,12.97
2019-01-25T12:53:28.017Z,13.07
2019-01-25T12:55:59.227Z,12.83
2019-01-25T12:58:30.964Z,13.47
2019-01-25T13:01:02.313Z,13.70
2019-01-25T13:03:33.545Z,15.10
2019-01-25T13:06:05.050Z,14.50
2019-01-25T13:08:38.044Z,15.33
2019-01-25T13:11:09.514Z,15.83
2019-01-25T13:13:40.670Z,17.40
2019-01-25T13:16:11.816Z,18.17
2019-01-25T13:18:43.054Z,20.20
2019-01-25T13:21:14.364Z,20.73
2019-01-25T13:23:45.617Z,19.93
2019-01-25T13:26:16.902Z,19.33
2019-01-25T13:28:48.009Z,19.00
2019-01-25T13:31:19.245Z,18.60
2019-01-25T13:33:50.538Z,18.27
2019-01-25T13:36:21.981Z,18.40
2019-01-25T13:38:53.184Z,22.90
2019-01-25T13:41:27.430Z,19.07
2019-01-25T13:43:57.358Z,20.30
2019-01-25T13:46:28.509Z,17.73
2019-01-25T13:49:00.002Z,18.60
2019-01-25T13:51:31.285Z,18.30
2019-01-25T13:54:02.608Z,16.73
2019-01-25T13:56:33.773Z,17.87
2019-01-25T13:59:05.187Z,17.70
2019-01-25T14:01:36.549Z,16.23
2019-01-25T14:04:07.821Z,15.07
2019-01-25T14:06:39.075Z,16.20
2019-01-25T14:09:11.359Z,14.53
2019-01-25T14:11:42.724Z,14.23
2019-01-25T14:14:14.019Z,14.87
2019-01-25T14:16:45.213Z,14.37
2019-01-25T14:19:16.255Z,14.53
2019-01-25T14:21:47.466Z,15.10
2019-01-25T14:24:18.573Z,15.60
2019-01-25T14:26:49.746Z,16.20
2019-01-25T14:29:20.760Z,16.60
2019-01-25T14:31:52.218Z,15.40
2019-01-25T14:34:23.397Z,16.47
2019-01-25T14:36:54.698Z,16.27
2019-01-25T14:39:25.918Z,18.17
2019-01-25T14:41:57.140Z,17.37
2019-01-25T14:44:28.262Z,17.33
2019-01-25T14:46:59.519Z,17.60
2019-01-25T14:49:30.576Z,38.57
2019-01-25T14:52:01.967Z,19.90
2019-01-25T14:54:33.206Z,13.33
2019-01-25T14:57:04.410Z,15.23
2019-01-25T14:59:35.732Z,16.07
2019-01-25T15:02:07.124Z,15.37
2019-01-25T15:04:38.260Z,14.27
2019-01-25T15:07:09.365Z,24.37
2019-01-25T15:09:40.764Z,17.90
2019-01-25T15:12:12.138Z,13.73
2019-01-25T15:14:43.395Z,13.80
2019-01-25T15:17:14.687Z,14.27
2019-01-25T15:19:45.857Z,13.33
2019-01-25T15:22:17.325Z,14.40
2019-01-25T15:24:48.762Z,15.10
2019-01-25T15:27:20.089Z,14.37
2019-01-25T15:29:51.414Z,13.93
2019-01-25T15:32:23.714Z,13.97
2019-01-25T15:34:55.292Z,14.27
2019-01-25T15:37:26.593Z,12.83
2019-01-25T15:39:57.886Z,15.17
2019-01-25T15:42:29.103Z,14.43
2019-01-25T15:45:00.498Z,14.93
2019-01-25T15:47:31.782Z,16.57
2019-01-25T15:50:03.011Z,33.17
2019-01-25T15:52:34.421Z,16.90
2019-01-25T15:55:06.654Z,14.73
2019-01-25T15:57:38.235Z,13.50
2019-01-25T16:00:13.763Z,14.60
2019-01-25T16:02:45.422Z,13.97
2019-01-25T16:05:18.245Z,15.83
2019-01-25T16:07:50.053Z,16.63
2019-01-25T16:10:22.402Z,17.27
2019-01-25T16:12:54.020Z,27.13
2019-01-25T16:15:30.592Z,17.83
2019-01-25T16:18:01.884Z,16.17
2019-01-25T16:20:33.413Z,17.10
2019-01-25T16:23:04.834Z,26.60
2019-01-25T16:25:36.512Z,35.20
2019-01-25T16:28:08.767Z,38.57
2019-01-25T16:30:40.415Z,19.37
2019-01-25T16:33:11.663Z,16.97
2019-01-25T16:35:42.849Z,19.63
2019-01-25T16:38:14.083Z,20.10
2019-01-25T16:40:45.303Z,18.60
2019-01-25T16:43:16.530Z,18.90
2019-01-25T16:45:47.987Z,19.60
2019-01-25T16:48:19.290Z,21.20
2019-01-25T16:50:51.658Z,18.27
2019-01-25T16:53:23.086Z,18.20
2019-01-25T16:55:54.463Z,17.17
2019-01-25T16:58:26.025Z,17.07
2019-01-25T17:00:57.394Z,16.53
2019-01-25T17:03:28.573Z,17.13
2019-01-25T17:05:59.900Z,20.97
2019-01-25T17:08:32.475Z,19.50
2019-01-25T17:11:03.652Z,19.47
2019-01-25T17:13:35.200Z,19.73
2019-01-25T17:16:06.628Z,22.33
2019-01-25T17:18:38.005Z,29.37
2019-01-25T17:21:09.293Z,26.13
2019-01-25T17:23:40.553Z,21.93
2019-01-25T17:26:11.778Z,18.67
2019-01-25T17:28:43.078Z,17.57
2019-01-25T17:31:14.507Z,15.90
2019-01-25T17:33:45.797Z,15.77
2019-01-25T17:36:16.923Z,15.53
2019-01-25T17:38:48.071Z,11.40
2019-01-25T17:41:19.443Z,13.23
2019-01-25T17:43:51.040Z,14.73
2019-01-25T17:46:22.349Z,16.03
2019-01-25T17:48:53.642Z,15.00
2019-01-25T17:51:24.948Z,15.57
2019-01-25T17:53:58.123Z,17.87
2019-01-25T17:56:29.374Z,16.20
2019-01-25T17:59:00.579Z,16.03
2019-01-25T18:01:32.056Z,16.07
2019-01-25T18:04:03.470Z,13.63
2019-01-25T18:06:34.831Z,13.43
2019-01-25T18:09:08.516Z,14.17
2019-01-25T18:11:41.071Z,12.77
2019-01-25T18:14:13.292Z,13.00
2019-01-25T18:16:44.682Z,12.57
2019-01-25T18:19:16.177Z,13.63
2019-01-25T18:21:47.610Z,16.33
2019-01-25T18:24:19.048Z,20.97
2019-01-25T18:26:50.242Z,20.57
2019-01-25T18:29:46.948Z,18.10
2019-01-25T18:32:18.335Z,12.70
2019-01-25T18:34:49.631Z,11.17
2019-01-25T18:37:20.870Z,11.17
2019-01-25T18:39:54.037Z,11.30
2019-01-25T18:42:25.149Z,10.63
2019-01-25T18:44:57.020Z,11.40
2019-01-25T18:47:28.379Z,10.57
2019-01-25T18:49:59.775Z,11.10
2019-01-25T18:52:31.137Z,11.50
2019-01-25T18:55:02.418Z,11.50
2019-01-25T18:57:34.866Z,12.67
2019-01-25T19:00:07.881Z,12.47
2019-01-25T19:02:39.245Z,12.37
2019-01-25T19:05:10.860Z,12.33
2019-01-25T19:07:42.300Z,13.17
2019-01-25T19:10:17.048Z,11.83
2019-01-25T19:12:48.467Z,11.33
2019-01-25T19:15:22.221Z,11.97
2019-01-25T19:17:53.739Z,10.70
2019-01-25T19:20:25.064Z,10.83
2019-01-25T19:22:56.376Z,10.47
2019-01-25T19:25:27.710Z,10.23
2019-01-25T19:28:00.030Z,10.57
2019-01-25T19:30:36.910Z,11.93
2019-01-25T19:33:08.243Z,10.90
2019-01-25T19:35:39.767Z,10.90
2019-01-25T19:38:12.608Z,11.03
2019-01-25T19:40:44.054Z,11.03
2019-01-25T19:43:15.532Z,10.47
2019-01-25T19:45:46.891Z,9.67
2019-01-25T19:48:18.073Z,8.80
2019-01-25T19:50:49.420Z,9.50
2019-01-25T19:53:21.114Z,9.10
2019-01-25T19:55:55.021Z,16.73
2019-01-25T19:58:27.157Z,9.80
2019-01-25T20:00:59.159Z,9.30
2019-01-25T20:03:30.990Z,9.67
2019-01-25T20:06:02.761Z,8.80
2019-01-25T20:08:34.369Z,8.83
2019-01-25T20:11:06.549Z,8.97
2019-01-25T20:13:38.081Z,9.17
2019-01-25T20:16:09.816Z,9.60
2019-01-25T20:18:41.083Z,9.27
2019-01-25T20:21:12.405Z,9.43
2019-01-25T20:23:43.447Z,7.90
2019-01-25T20:26:14.735Z,8.60
2019-01-25T20:28:45.998Z,9.03
2019-01-25T20:31:17.372Z,8.67
2019-01-25T20:33:48.821Z,8.23
2019-01-25T20:36:20.122Z,8.43
2019-01-25T20:38:51.330Z,8.73
2019-01-25T20:41:22.702Z,8.70
2019-01-25T20:43:54.179Z,8.73
2019-01-25T20:46:25.804Z,8.10
2019-01-25T20:48:57.008Z,8.53
2019-01-25T20:51:28.264Z,8.40
2019-01-25T20:53:59.479Z,8.37
2019-01-25T20:56:30.831Z,8.03
2019-01-25T20:59:02.055Z,7.90
2019-01-25T21:01:33.349Z,7.90
2019-01-25T21:04:04.873Z,7.80
2019-01-25T21:06:36.402Z,7.93
2019-01-25T21:09:10.237Z,8.33
2019-01-25T21:11:41.633Z,7.77
2019-01-25T21:14:12.864Z,7.27
2019-01-25T21:16:44.368Z,7.63
2019-01-25T21:19:15.704Z,7.37
2019-01-25T21:21:47.004Z,8.00
2019-01-25T21:24:18.207Z,9.17
2019-01-25T21:26:49.536Z,8.47
2019-01-25T21:29:20.584Z,8.73
2019-01-25T21:31:51.778Z,9.60
2019-01-25T21:34:23.172Z,11.87
2019-01-25T21:36:54.555Z,10.03
2019-01-25T21:39:28.105Z,10.77
2019-01-25T21:41:59.522Z,9.37
2019-01-25T21:44:30.678Z,9.47
2019-01-25T21:47:02.290Z,9.97
2019-01-25T21:49:33.718Z,9.37
2019-01-25T21:52:04.964Z,9.87
2019-01-25T21:54:36.331Z,11.07
2019-01-25T21:57:07.686Z,11.00
2019-01-25T21:59:39.113Z,12.37
2019-01-25T22:02:12.561Z,12.57
2019-01-25T22:04:43.679Z,12.30
2019-01-25T22:07:14.845Z,12.70
2019-01-25T22:09:45.962Z,11.97
2019-01-25T22:12:17.339Z,12.93
2019-01-25T22:14:48.587Z,11.47
2019-01-25T22:17:19.716Z,11.57
2019-01-25T22:19:51.098Z,12.43
2019-01-25T22:22:22.500Z,11.50
2019-01-25T22:24:53.771Z,10.53
2019-01-25T22:27:24.986Z,10.07
2019-01-25T22:29:56.180Z,9.37
2019-01-25T22:32:27.342Z,8.27
2019-01-25T22:34:58.717Z,8.87
2019-01-25T22:37:29.921Z,8.93
2019-01-25T22:40:01.338Z,9.23
2019-01-25T22:42:32.639Z,9.37
2019-01-25T22:45:06.109Z,7.37
2019-01-25T22:47:37.418Z,8.13
2019-01-25T22:50:11.714Z,7.67
2019-01-25T22:52:43.025Z,7.17
2019-01-25T22:55:14.895Z,7.03
2019-01-25T22:57:46.451Z,8.73
2019-01-25T23:00:35.504Z,7.83
2019-01-25T23:03:06.960Z,7.53
2019-01-25T23:06:17.826Z,7.77
2019-01-25T23:08:49.045Z,6.70
2019-01-25T23:11:20.637Z,6.60
2019-01-25T23:13:52.034Z,7.43
2019-01-25T23:16:23.222Z,8.80
2019-01-25T23:18:54.554Z,7.93
2019-01-25T23:21:25.853Z,7.57
2019-01-25T23:23:57.116Z,7.77
2019-01-25T23:26:28.420Z,9.03
2019-01-25T23:29:00.747Z,8.77
2019-01-25T23:31:31.972Z,8.37
2019-01-25T23:34:03.144Z,7.70
2019-01-25T23:36:34.452Z,8.17
2019-01-25T23:39:08.581Z,8.90
2019-01-25T23:41:40.724Z,9.47
2019-01-25T23:44:11.970Z,9.33
2019-01-25T23:46:43.217Z,8.27
2019-01-25T23:49:14.749Z,8.03
2019-01-25T23:51:46.071Z,9.17
2019-01-25T23:54:17.256Z,9.17
2019-01-25T23:56:48.432Z,8.80
2019-01-25T23:59:19.752Z,7.87
